createdAt,value
2022-09-25T00:01:15.016Z,100250.61
2022-09-25T00:03:47.556Z,100247.70
2022-09-25T00:06:16.484Z,100249.80
2022-09-25T00:08:44.316Z,100248.23
2022-09-25T00:11:18.498Z,100252.06
2022-09-25T00:13:46.852Z,100249.49
2022-09-25T00:16:17.212Z,100248.90
2022-09-25T00:19:03.453Z,100245.98
2022-09-25T00:21:32.295Z,100246.77
2022-09-25T00:24:04.900Z,100248.27
2022-09-25T00:26:35.480Z,100247.77
2022-09-25T00:29:04.641Z,100248.02
2022-09-25T00:31:32.490Z,100248.43
2022-09-25T00:34:02.290Z,100251.38
2022-09-25T00:36:29.762Z,100253.42
2022-09-25T00:38:57.831Z,100245.98
2022-09-25T00:41:27.035Z,100244.58
2022-09-25T00:43:56.949Z,100241.32
2022-09-25T00:46:44.081Z,100239.89
2022-09-25T00:49:19.705Z,100234.02
2022-09-25T00:51:55.145Z,100234.39
2022-09-25T00:54:24.999Z,100229.66
2022-09-25T00:56:54.795Z,100229.24
2022-09-25T00:59:28.384Z,100227.35
2022-09-25T01:01:56.346Z,100233.92
2022-09-25T01:04:24.015Z,100230.41
2022-09-25T01:06:50.851Z,100232.04
2022-09-25T01:09:18.729Z,100231.23
2022-09-25T01:11:45.897Z,100231.17
2022-09-25T01:14:17.019Z,100232.88
2022-09-25T01:17:19.077Z,100231.65
2022-09-25T01:19:58.102Z,100235.38
2022-09-25T01:22:33.749Z,100230.52
2022-09-25T01:25:36.738Z,100227.67
2022-09-25T01:28:11.186Z,100231.13
2022-09-25T01:30:44.206Z,100232.80
2022-09-25T01:33:18.359Z,100231.65
2022-09-25T01:36:00.727Z,100232.02
2022-09-25T01:38:45.323Z,100232.15
2022-09-25T01:41:23.942Z,100229.64
2022-09-25T01:44:05.997Z,100225.98
2022-09-25T01:46:39.374Z,100224.45
2022-09-25T01:49:17.234Z,100221.95
2022-09-25T01:51:52.471Z,100216.41
2022-09-25T01:54:29.457Z,100216.21
2022-09-25T01:57:09.037Z,100214.16
2022-09-25T01:59:43.726Z,100215.02
2022-09-25T02:02:18.764Z,100211.94
2022-09-25T02:04:56.688Z,100213.20
2022-09-25T02:07:31.398Z,100210.73
2022-09-25T02:10:07.769Z,100209.15
2022-09-25T02:12:40.398Z,100210.67
2022-09-25T02:15:25.436Z,100214.08
2022-09-25T02:18:44.355Z,100212.48
2022-09-25T02:21:14.081Z,100210.16
2022-09-25T02:24:01.185Z,100204.83
2022-09-25T02:26:30.366Z,100202.98
2022-09-25T02:28:58.779Z,100199.02
2022-09-25T02:31:53.350Z,100192.67
2022-09-25T02:34:21.878Z,100187.35
2022-09-25T02:36:49.731Z,100184.66
2022-09-25T02:39:34.107Z,100181.10
2022-09-25T02:42:09.738Z,100180.39
2022-09-25T02:44:46.369Z,100182.23
2022-09-25T02:47:20.791Z,100179.84
2022-09-25T02:49:56.855Z,100180.05
2022-09-25T02:52:42.430Z,100178.63
2022-09-25T02:55:19.717Z,100180.26
2022-09-25T02:57:55.469Z,100177.72
2022-09-25T03:00:23.334Z,100175.95
2022-09-25T03:02:59.078Z,100175.52
2022-09-25T03:05:27.069Z,100178.61
2022-09-25T03:08:13.089Z,100173.08
2022-09-25T03:10:41.568Z,100178.37
2022-09-25T03:13:15.409Z,100175.45
2022-09-25T03:15:45.894Z,100173.52
2022-09-25T03:18:14.341Z,100174.77
2022-09-25T03:20:41.386Z,100172.34
2022-09-25T03:23:08.128Z,100174.98
2022-09-25T03:25:34.869Z,100168.45
2022-09-25T03:28:02.667Z,100165.41
2022-09-25T03:30:29.651Z,100161.01
2022-09-25T03:32:56.518Z,100164.89
2022-09-25T03:35:23.259Z,100165.58
2022-09-25T03:37:50.266Z,100170.36
2022-09-25T03:40:17.026Z,100173.40
2022-09-25T03:42:43.784Z,100170.27
2022-09-25T03:45:11.137Z,100173.73
2022-09-25T03:47:38.083Z,100170.95
2022-09-25T03:50:07.998Z,100174.92
2022-09-25T03:52:34.899Z,100171.31
2022-09-25T03:55:01.995Z,100170.28
2022-09-25T03:57:29.547Z,100166.08
2022-09-25T04:00:00.715Z,100165.02
2022-09-25T04:02:28.698Z,100168.11
2022-09-25T04:04:56.119Z,100167.56
2022-09-25T04:07:24.701Z,100175.23
2022-09-25T04:09:51.334Z,100178.21
2022-09-25T04:12:18.077Z,100179.58
2022-09-25T04:14:45.536Z,100179.40
2022-09-25T04:17:12.580Z,100182.13
2022-09-25T04:19:39.323Z,100176.08
2022-09-25T04:22:06.059Z,100176.73
2022-09-25T04:24:48.772Z,100173.74
2022-09-25T04:27:21.736Z,100170.15
2022-09-25T04:29:49.115Z,100169.89
2022-09-25T04:32:35.629Z,100169.69
2022-09-25T04:35:03.075Z,100170.23
2022-09-25T04:37:30.150Z,100165.02
2022-09-25T04:39:57.925Z,100168.14
2022-09-25T04:42:25.545Z,100169.34
2022-09-25T04:44:53.818Z,100170.02
2022-09-25T04:47:22.111Z,100168.45
2022-09-25T04:49:49.449Z,100163.94
2022-09-25T04:52:18.215Z,100164.08
2022-09-25T04:54:46.320Z,100165.86
2022-09-25T04:57:38.794Z,100162.61
2022-09-25T05:00:06.427Z,100161.73
2022-09-25T05:02:34.197Z,100161.84
2022-09-25T05:05:01.162Z,100164.58
2022-09-25T05:07:28.175Z,100162.27
2022-09-25T05:09:54.915Z,100164.39
2022-09-25T05:12:21.648Z,100157.23
2022-09-25T05:14:48.401Z,100153.05
2022-09-25T05:17:15.034Z,100155.10
2022-09-25T05:19:41.694Z,100156.78
2022-09-25T05:22:08.402Z,100157.83
2022-09-25T05:24:35.138Z,100162.60
2022-09-25T05:27:02.182Z,100164.66
2022-09-25T05:29:29.035Z,100170.89
2022-09-25T05:31:55.978Z,100174.84
2022-09-25T05:34:22.933Z,100167.02
2022-09-25T05:36:50.077Z,100166.58
2022-09-25T05:39:16.912Z,100171.55
2022-09-25T05:41:43.660Z,100174.61
2022-09-25T05:44:10.875Z,100178.75
2022-09-25T05:46:39.953Z,100177.48
2022-09-25T05:49:06.939Z,100182.98
2022-09-25T05:51:34.090Z,100183.08
2022-09-25T05:54:00.949Z,100183.67
2022-09-25T05:56:27.877Z,100182.95
2022-09-25T05:58:58.100Z,100185.36
2022-09-25T06:01:25.808Z,100185.52
2022-09-25T06:03:52.605Z,100191.34
2022-09-25T06:06:22.526Z,100197.17
2022-09-25T06:08:54.379Z,100203.77
2022-09-25T06:11:21.867Z,100203.48
2022-09-25T06:13:54.167Z,100204.23
2022-09-25T06:16:23.153Z,100204.36
2022-09-25T06:18:50.549Z,100207.27
2022-09-25T06:21:17.319Z,100204.73
2022-09-25T06:23:48.348Z,100201.49
2022-09-25T06:26:14.998Z,100196.88
2022-09-25T06:28:41.635Z,100200.23
2022-09-25T06:31:08.500Z,100196.61
2022-09-25T06:33:35.374Z,100196.98
2022-09-25T06:36:04.934Z,100196.90
2022-09-25T06:38:34.658Z,100196.73
2022-09-25T06:41:04.702Z,100192.48
2022-09-25T06:43:31.715Z,100192.77
2022-09-25T06:46:01.948Z,100193.72
2022-09-25T06:48:30.320Z,100193.71
2022-09-25T06:51:00.457Z,100194.80
2022-09-25T06:53:27.981Z,100193.65
2022-09-25T06:55:58.763Z,100191.66
2022-09-25T06:58:27.058Z,100190.02
2022-09-25T07:00:56.224Z,100191.27
2022-09-25T07:03:42.872Z,100185.42
2022-09-25T07:06:13.064Z,100185.09
2022-09-25T07:08:41.748Z,100183.91
2022-09-25T07:11:14.473Z,100180.73
2022-09-25T07:13:42.406Z,100179.73
2022-09-25T07:16:18.121Z,100176.79
2022-09-25T07:18:46.769Z,100174.90
2022-09-25T07:21:16.690Z,100172.41
2022-09-25T07:23:47.255Z,100175.19
2022-09-25T07:26:26.904Z,100179.81
2022-09-25T07:28:55.224Z,100178.53
2022-09-25T07:31:25.735Z,100181.82
2022-09-25T07:33:53.585Z,100182.77
2022-09-25T07:36:20.803Z,100184.48
2022-09-25T07:38:51.946Z,100186.17
2022-09-25T07:41:23.196Z,100183.59
2022-09-25T07:44:27.455Z,100179.59
2022-09-25T07:46:43.965Z,100187.46
2022-09-25T07:49:11.351Z,100182.55
2022-09-25T07:51:38.355Z,100181.80
2022-09-25T07:54:05.208Z,100181.02
2022-09-25T07:56:34.095Z,100179.81
2022-09-25T07:59:01.130Z,100179.70
2022-09-25T08:01:28.003Z,100174.50
2022-09-25T08:03:54.885Z,100178.58
2022-09-25T08:06:21.782Z,100180.56
2022-09-25T08:08:48.369Z,100181.80
2022-09-25T08:11:18.026Z,100183.77
2022-09-25T08:13:45.618Z,100183.95
2022-09-25T08:16:15.486Z,100180.09
2022-09-25T08:18:45.976Z,100177.02
2022-09-25T08:21:15.168Z,100177.96
2022-09-25T08:23:47.812Z,100177.27
2022-09-25T08:26:16.262Z,100178.44
2022-09-25T08:28:43.874Z,100183.26
2022-09-25T08:31:11.541Z,100181.99
2022-09-25T08:33:40.125Z,100183.69
2022-09-25T08:36:06.930Z,100182.91
2022-09-25T08:38:34.227Z,100179.95
2022-09-25T08:41:07.130Z,100177.19
2022-09-25T08:43:40.574Z,100179.12
2022-09-25T08:46:39.703Z,100171.21
2022-09-25T08:49:10.945Z,100165.36
2022-09-25T08:51:49.811Z,100163.25
2022-09-25T08:54:23.834Z,100163.73
2022-09-25T08:56:56.740Z,100165.30
2022-09-25T08:59:27.052Z,100167.02
2022-09-25T09:02:02.055Z,100166.36
2022-09-25T09:04:32.871Z,100158.94
2022-09-25T09:07:31.005Z,100152.40
2022-09-25T09:10:14.696Z,100154.30
2022-09-25T09:12:46.555Z,100151.60
2022-09-25T09:15:36.061Z,100147.69
2022-09-25T09:18:24.355Z,100145.54
2022-09-25T09:21:08.873Z,100140.23
2022-09-25T09:23:53.470Z,100139.33
2022-09-25T09:26:33.655Z,100137.87
2022-09-25T09:29:12.590Z,100135.87
2022-09-25T09:31:39.235Z,100132.37
2022-09-25T09:34:32.057Z,100133.02
2022-09-25T09:37:23.242Z,100132.72
2022-09-25T09:40:19.075Z,100132.83
2022-09-25T09:42:55.351Z,100127.89
2022-09-25T09:45:35.152Z,100127.18
2022-09-25T09:48:32.042Z,100130.51
2022-09-25T09:51:27.005Z,100124.06
2022-09-25T09:54:16.736Z,100121.23
2022-09-25T09:56:49.342Z,100117.11
2022-09-25T09:59:25.551Z,100113.98
2022-09-25T10:02:05.211Z,100104.02
2022-09-25T10:04:40.268Z,100102.80
2022-09-25T10:07:16.410Z,100096.63
2022-09-25T10:09:43.546Z,100091.42
2022-09-25T10:12:21.721Z,100088.11
2022-09-25T10:14:48.541Z,100081.64
2022-09-25T10:17:16.827Z,100079.42
2022-09-25T10:19:57.754Z,100077.61
2022-09-25T10:22:28.655Z,100078.61
2022-09-25T10:25:04.885Z,100076.26
2022-09-25T10:27:41.158Z,100071.23
2022-09-25T10:30:10.954Z,100076.30
2022-09-25T10:33:15.659Z,100072.52
2022-09-25T10:35:48.586Z,100069.08
2022-09-25T10:38:47.250Z,100072.23
2022-09-25T10:41:20.047Z,100072.77
2022-09-25T10:43:55.678Z,100068.59
2022-09-25T10:46:59.605Z,100067.45
2022-09-25T10:49:46.945Z,100065.93
2022-09-25T10:52:19.338Z,100068.64
2022-09-25T10:54:48.998Z,100067.59
2022-09-25T10:57:37.807Z,100065.85
2022-09-25T11:00:19.387Z,100062.84
2022-09-25T11:02:56.815Z,100061.88
2022-09-25T11:05:33.236Z,100055.55
2022-09-25T11:08:04.097Z,100055.77
2022-09-25T11:10:35.785Z,100052.27
2022-09-25T11:13:17.498Z,100048.21
2022-09-25T11:15:53.226Z,100040.73
2022-09-25T11:18:40.344Z,100037.91
2022-09-25T11:21:36.411Z,100037.55
2022-09-25T11:24:16.726Z,100034.19
2022-09-25T11:26:51.245Z,100031.85
2022-09-25T11:29:37.797Z,100030.25
2022-09-25T11:32:27.428Z,100026.36
2022-09-25T11:35:14.624Z,100028.98
2022-09-25T11:38:02.814Z,100021.55
2022-09-25T11:41:03.019Z,100017.37
2022-09-25T11:43:58.407Z,100015.58
2022-09-25T11:47:01.010Z,100015.17
2022-09-25T11:49:39.564Z,100018.97
2022-09-25T11:52:24.453Z,100017.23
2022-09-25T11:55:43.268Z,100020.39
2022-09-25T11:58:26.128Z,100020.61
2022-09-25T12:01:28.606Z,100020.84
2022-09-25T12:04:13.237Z,100017.38
2022-09-25T12:06:59.906Z,100012.57
2022-09-25T12:09:45.007Z,100009.19
2022-09-25T12:12:25.919Z,100006.86
2022-09-25T12:15:14.544Z,100008.58
2022-09-25T12:18:12.892Z,100009.02
2022-09-25T12:20:51.155Z,100001.57
2022-09-25T12:23:30.568Z,99996.96
2022-09-25T12:26:12.350Z,99995.36
2022-09-25T12:29:04.163Z,99989.90
2022-09-25T12:31:52.226Z,99988.16
2022-09-25T12:34:57.772Z,99976.44
2022-09-25T12:37:50.118Z,99974.05
2022-09-25T12:40:19.608Z,99967.34
2022-09-25T12:42:55.328Z,99964.67
2022-09-25T12:45:31.134Z,99959.14
2022-09-25T12:48:20.922Z,99962.95
2022-09-25T12:51:05.346Z,99962.16
2022-09-25T12:53:55.785Z,99966.10
2022-09-25T12:56:37.825Z,99960.96
2022-09-25T12:59:24.150Z,99956.55
2022-09-25T13:01:54.071Z,99959.80
2022-09-25T13:04:34.720Z,99956.71
2022-09-25T13:07:20.905Z,99956.69
2022-09-25T13:09:48.618Z,99952.31
2022-09-25T13:12:32.105Z,99950.42
2022-09-25T13:15:10.987Z,99950.89
2022-09-25T13:17:39.395Z,99945.42
2022-09-25T13:20:28.274Z,99943.98
2022-09-25T13:23:00.529Z,99937.98
2022-09-25T13:25:28.855Z,99940.58
2022-09-25T13:28:05.060Z,99938.56
2022-09-25T13:30:32.000Z,99938.80
2022-09-25T13:33:02.621Z,99934.66
2022-09-25T13:35:32.500Z,99930.31
2022-09-25T13:38:37.331Z,99925.70
2022-09-25T13:41:30.737Z,99923.56
2022-09-25T13:44:36.944Z,99921.77
2022-09-25T13:47:25.097Z,99918.09
2022-09-25T13:50:04.362Z,99912.03
2022-09-25T13:53:17.582Z,99906.33
2022-09-25T13:55:56.910Z,99905.25
2022-09-25T13:58:28.826Z,99900.70
2022-09-25T14:01:01.226Z,99899.02
2022-09-25T14:03:31.688Z,99892.70
2022-09-25T14:06:00.431Z,99893.31
2022-09-25T14:08:31.875Z,99894.35
2022-09-25T14:11:04.332Z,99894.05
2022-09-25T14:13:33.179Z,99888.92
2022-09-25T14:16:02.431Z,99890.30
2022-09-25T14:18:42.499Z,99888.96
2022-09-25T14:21:12.868Z,99887.11
2022-09-25T14:23:52.871Z,99886.56
2022-09-25T14:26:24.310Z,99885.55
2022-09-25T14:28:53.229Z,99883.50
2022-09-25T14:31:23.047Z,99882.46
2022-09-25T14:34:04.646Z,99880.40
2022-09-25T14:36:50.151Z,99878.66
2022-09-25T14:39:44.377Z,99871.04
2022-09-25T14:42:52.174Z,99867.95
2022-09-25T14:45:50.917Z,99865.05
2022-09-25T14:48:24.375Z,99860.27
2022-09-25T14:51:00.898Z,99856.49
2022-09-25T14:53:35.730Z,99851.99
2022-09-25T14:56:09.252Z,99853.09
2022-09-25T14:58:41.188Z,99844.71
2022-09-25T15:01:29.999Z,99847.29
2022-09-25T15:04:06.447Z,99842.29
2022-09-25T15:06:38.875Z,99843.81
2022-09-25T15:09:49.408Z,99844.22
2022-09-25T15:12:34.105Z,99839.98
2022-09-25T15:15:11.461Z,99837.11
2022-09-25T15:18:01.936Z,99835.55
2022-09-25T15:20:32.325Z,99834.33
2022-09-25T15:23:05.309Z,99831.47
2022-09-25T15:25:39.789Z,99828.94
2022-09-25T15:28:26.258Z,99832.66
2022-09-25T15:31:00.045Z,99828.14
2022-09-25T15:33:30.056Z,99825.63
2022-09-25T15:36:00.461Z,99822.98
2022-09-25T15:38:32.732Z,99825.67
2022-09-25T15:40:59.875Z,99826.46
2022-09-25T15:43:29.633Z,99824.05
2022-09-25T15:46:08.474Z,99822.54
2022-09-25T15:48:41.138Z,99818.57
2022-09-25T15:51:19.840Z,99821.98
2022-09-25T15:53:56.452Z,99819.16
2022-09-25T15:56:50.702Z,99816.13
2022-09-25T15:59:23.198Z,99813.75
2022-09-25T16:02:09.771Z,99813.80
2022-09-25T16:04:40.060Z,99816.12
2022-09-25T16:07:47.657Z,99813.65
2022-09-25T16:10:18.003Z,99810.68
2022-09-25T16:12:48.942Z,99809.05
2022-09-25T16:15:29.863Z,99808.09
2022-09-25T16:18:06.102Z,99803.05
2022-09-25T16:20:38.788Z,99801.83
2022-09-25T16:23:29.600Z,99795.24
2022-09-25T16:25:59.654Z,99795.63
2022-09-25T16:28:29.895Z,99793.06
2022-09-25T16:31:08.569Z,99793.75
2022-09-25T16:33:42.065Z,99790.27
2022-09-25T16:36:19.233Z,99790.73
2022-09-25T16:39:07.979Z,99785.66
2022-09-25T16:41:38.324Z,99783.36
2022-09-25T16:44:20.910Z,99778.88
2022-09-25T16:46:59.789Z,99778.76
2022-09-25T16:49:26.497Z,99779.55
2022-09-25T16:51:54.917Z,99783.96
2022-09-25T16:54:30.385Z,99789.34
2022-09-25T16:56:58.946Z,99787.73
2022-09-25T16:59:27.857Z,99785.09
2022-09-25T17:02:01.518Z,99785.84
2022-09-25T17:04:30.651Z,99781.31
2022-09-25T17:06:58.176Z,99776.98
2022-09-25T17:09:28.342Z,99780.24
2022-09-25T17:12:10.868Z,99781.68
2022-09-25T17:14:37.671Z,99786.27
2022-09-25T17:17:04.385Z,99786.58
2022-09-25T17:19:31.114Z,99780.69
2022-09-25T17:21:57.977Z,99786.23
2022-09-25T17:24:29.935Z,99784.42
2022-09-25T17:27:13.315Z,99785.31
2022-09-25T17:29:42.196Z,99786.92
2022-09-25T17:32:14.950Z,99786.38
2022-09-25T17:34:44.898Z,99782.54
2022-09-25T17:37:11.578Z,99786.66
2022-09-25T17:39:38.499Z,99788.60
2022-09-25T17:42:05.377Z,99788.72
2022-09-25T17:44:32.767Z,99786.84
2022-09-25T17:47:00.516Z,99785.45
2022-09-25T17:49:29.237Z,99783.73
2022-09-25T17:51:56.115Z,99779.03
2022-09-25T17:54:23.578Z,99772.84
2022-09-25T17:56:50.722Z,99774.68
2022-09-25T17:59:17.755Z,99770.68
2022-09-25T18:01:44.689Z,99768.14
2022-09-25T18:04:25.179Z,99767.78
2022-09-25T18:06:52.344Z,99762.86
2022-09-25T18:09:21.770Z,99758.38
2022-09-25T18:11:48.768Z,99758.73
2022-09-25T18:14:16.665Z,99756.45
2022-09-25T18:16:45.082Z,99756.70
2022-09-25T18:19:38.447Z,99756.27
2022-09-25T18:22:18.847Z,99753.11
2022-09-25T18:24:55.898Z,99750.25
2022-09-25T18:27:33.841Z,99750.13
2022-09-25T18:30:01.120Z,99748.12
2022-09-25T18:32:29.109Z,99745.10
2022-09-25T18:34:55.795Z,99747.25
2022-09-25T18:37:22.574Z,99747.63
2022-09-25T18:39:50.331Z,99747.35
2022-09-25T18:42:17.431Z,99749.56
2022-09-25T18:44:44.255Z,99747.52
2022-09-25T18:47:11.354Z,99745.33
2022-09-25T18:49:38.515Z,99744.04
2022-09-25T18:52:06.291Z,99746.34
2022-09-25T18:54:34.016Z,99744.96
2022-09-25T18:57:00.734Z,99743.73
2022-09-25T18:59:30.368Z,99743.69
2022-09-25T19:01:57.178Z,99744.98
2022-09-25T19:04:25.199Z,99742.02
2022-09-25T19:06:55.491Z,99743.73
2022-09-25T19:09:24.130Z,99740.42
2022-09-25T19:11:51.336Z,99742.89
2022-09-25T19:14:19.450Z,99739.08
2022-09-25T19:16:47.097Z,99739.50
2022-09-25T19:19:14.091Z,99736.55
2022-09-25T19:21:44.309Z,99733.04
2022-09-25T19:24:11.370Z,99736.61
2022-09-25T19:26:38.270Z,99738.42
2022-09-25T19:29:07.901Z,99735.94
2022-09-25T19:31:34.902Z,99738.13
2022-09-25T19:34:04.664Z,99738.30
2022-09-25T19:36:34.352Z,99733.63
2022-09-25T19:39:01.863Z,99732.44
2022-09-25T19:41:31.323Z,99725.44
2022-09-25T19:44:11.223Z,99726.50
2022-09-25T19:46:41.067Z,99719.41
2022-09-25T19:49:08.052Z,99715.45
2022-09-25T19:51:37.166Z,99713.27
2022-09-25T19:54:05.275Z,99712.81
2022-09-25T19:56:31.999Z,99713.42
2022-09-25T19:58:58.996Z,99715.66
2022-09-25T20:01:29.748Z,99717.45
2022-09-25T20:03:56.658Z,99720.77
2022-09-25T20:06:25.735Z,99714.64
2022-09-25T20:09:03.135Z,99716.70
2022-09-25T20:11:31.281Z,99714.09
2022-09-25T20:14:00.662Z,99713.86
2022-09-25T20:16:28.945Z,99708.38
2022-09-25T20:18:59.832Z,99705.91
2022-09-25T20:21:29.891Z,99703.60
2022-09-25T20:23:58.987Z,99707.31
2022-09-25T20:26:26.925Z,99707.02
2022-09-25T20:28:59.501Z,99707.87
2022-09-25T20:31:28.749Z,99708.87
2022-09-25T20:33:56.115Z,99708.14
2022-09-25T20:36:23.620Z,99709.27
2022-09-25T20:38:52.302Z,99710.27
2022-09-25T20:41:20.459Z,99706.27
2022-09-25T20:43:52.889Z,99708.39
2022-09-25T20:46:20.880Z,99708.52
2022-09-25T20:48:50.588Z,99707.52
2022-09-25T20:51:27.015Z,99707.85
2022-09-25T20:54:00.733Z,99707.20
2022-09-25T20:56:29.439Z,99705.63
2022-09-25T20:58:57.416Z,99703.30
2022-09-25T21:01:27.424Z,99702.52
2022-09-25T21:03:54.739Z,99702.81
2022-09-25T21:06:24.495Z,99701.77
2022-09-25T21:08:57.356Z,99701.66
2022-09-25T21:11:26.117Z,99703.65
2022-09-25T21:13:57.695Z,99702.33
2022-09-25T21:16:29.779Z,99694.73
2022-09-25T21:19:00.112Z,99700.33
2022-09-25T21:21:28.441Z,99699.23
2022-09-25T21:23:57.757Z,99700.70
2022-09-25T21:26:27.458Z,99698.91
2022-09-25T21:28:56.939Z,99699.08
2022-09-25T21:31:39.509Z,99697.95
2022-09-25T21:34:12.125Z,99700.13
2022-09-25T21:36:38.931Z,99697.78
2022-09-25T21:39:06.875Z,99696.42
2022-09-25T21:41:34.457Z,99696.63
2022-09-25T21:44:05.619Z,99692.02
2022-09-25T21:46:34.858Z,99690.39
2022-09-25T21:49:04.755Z,99686.85
2022-09-25T21:51:42.799Z,99687.19
2022-09-25T21:54:11.710Z,99680.98
2022-09-25T21:56:38.708Z,99676.17
2022-09-25T21:59:08.862Z,99676.45
2022-09-25T22:01:39.285Z,99670.91
2022-09-25T22:04:08.114Z,99669.62
2022-09-25T22:06:40.788Z,99665.06
2022-09-25T22:09:21.999Z,99664.41
2022-09-25T22:11:50.558Z,99660.74
2022-09-25T22:14:19.372Z,99658.86
2022-09-25T22:16:48.958Z,99657.54
2022-09-25T22:19:25.980Z,99657.43
2022-09-25T22:22:02.655Z,99654.34
2022-09-25T22:24:29.356Z,99652.54
2022-09-25T22:26:56.540Z,99652.10
2022-09-25T22:29:24.298Z,99650.80
2022-09-25T22:31:52.416Z,99649.11
2022-09-25T22:34:22.252Z,99649.31
2022-09-25T22:36:56.197Z,99649.88
2022-09-25T22:39:27.113Z,99647.95
2022-09-25T22:41:54.968Z,99648.43
2022-09-25T22:44:22.387Z,99647.25
2022-09-25T22:46:49.306Z,99644.02
2022-09-25T22:49:16.812Z,99645.20
2022-09-25T22:51:43.856Z,99641.10
2022-09-25T22:54:14.034Z,99636.73
2022-09-25T22:56:41.744Z,99629.64
2022-09-25T22:59:14.309Z,99629.77
2022-09-25T23:01:46.160Z,99627.54
2022-09-25T23:04:16.481Z,99623.90
2022-09-25T23:06:43.535Z,99622.12
2022-09-25T23:09:15.121Z,99621.33
2022-09-25T23:11:42.584Z,99616.74
2022-09-25T23:14:18.979Z,99611.16
2022-09-25T23:16:48.764Z,99607.48
2022-09-25T23:19:20.026Z,99606.20
2022-09-25T23:21:47.797Z,99604.20
2022-09-25T23:24:16.804Z,99598.96
2022-09-25T23:26:45.299Z,99600.83
2022-09-25T23:29:14.606Z,99598.75
2022-09-25T23:31:42.395Z,99600.02
2022-09-25T23:34:10.260Z,99597.27
2022-09-25T23:36:38.006Z,99598.38
2022-09-25T23:39:07.869Z,99598.48
2022-09-25T23:41:37.375Z,99594.88
2022-09-25T23:44:07.093Z,99598.03
2022-09-25T23:46:37.512Z,99592.20
2022-09-25T23:49:05.442Z,99595.89
2022-09-25T23:51:32.349Z,99596.44
2022-09-25T23:54:01.134Z,99595.30
2022-09-25T23:56:31.173Z,99592.02
2022-09-25T23:59:01.039Z,99596.65
